sensor_id;sensor_type;location;lat;lon;timestamp;P1;durP1;ratioP1;P2;durP2;ratioP2
3811;SDS011;1921;49.368;11.068;2023-06-26T00:01:25;71.90;;;55.97;;
3811;SDS011;1921;49.368;11.068;2023-06-26T00:03:54;74.60;;;55.40;;
3811;SDS011;1921;49.368;11.068;2023-06-26T00:06:20;74.00;;;54.93;;
3811;SDS011;1921;49.368;11.068;2023-06-26T00:08:49;70.40;;;54.37;;
3811;SDS011;1921;49.368;11.068;2023-06-26T00:11:15;86.63;;;56.43;;
3811;SDS011;1921;49.368;11.068;2023-06-26T00:13:41;68.90;;;54.20;;
3811;SDS011;1921;49.368;11.068;2023-06-26T00:16:07;71.73;;;55.37;;
3811;SDS011;1921;49.368;11.068;2023-06-26T00:18:33;70.20;;;54.70;;
3811;SDS011;1921;49.368;11.068;2023-06-26T00:20:58;70.67;;;54.53;;
3811;SDS011;1921;49.368;11.068;2023-06-26T00:23:24;73.93;;;55.10;;
3811;SDS011;1921;49.368;11.068;2023-06-26T00:25:50;69.30;;;54.57;;
3811;SDS011;1921;49.368;11.068;2023-06-26T00:28:15;69.17;;;54.67;;
3811;SDS011;1921;49.368;11.068;2023-06-26T00:30:41;74.50;;;54.70;;
3811;SDS011;1921;49.368;11.068;2023-06-26T00:33:07;71.17;;;54.17;;
3811;SDS011;1921;49.368;11.068;2023-06-26T00:35:33;72.67;;;54.63;;
3811;SDS011;1921;49.368;11.068;2023-06-26T00:38:00;69.87;;;54.83;;
3811;SDS011;1921;49.368;11.068;2023-06-26T00:40:26;75.93;;;55.47;;
3811;SDS011;1921;49.368;11.068;2023-06-26T00:42:52;69.50;;;54.20;;
3811;SDS011;1921;49.368;11.068;2023-06-26T00:45:18;74.60;;;54.97;;
3811;SDS011;1921;49.368;11.068;2023-06-26T00:47:44;70.83;;;54.67;;
3811;SDS011;1921;49.368;11.068;2023-06-26T00:50:10;72.47;;;55.80;;
3811;SDS011;1921;49.368;11.068;2023-06-26T00:52:36;56.53;;;44.27;;
3811;SDS011;1921;49.368;11.068;2023-06-26T00:55:02;71.20;;;54.93;;
3811;SDS011;1921;49.368;11.068;2023-06-26T00:57:29;71.37;;;55.17;;
3811;SDS011;1921;49.368;11.068;2023-06-26T00:59:56;71.67;;;54.60;;
3811;SDS011;1921;49.368;11.068;2023-06-26T01:02:22;72.30;;;55.40;;
3811;SDS011;1921;49.368;11.068;2023-06-26T01:04:48;69.53;;;54.37;;
3811;SDS011;1921;49.368;11.068;2023-06-26T01:07:17;69.17;;;54.33;;
3811;SDS011;1921;49.368;11.068;2023-06-26T01:09:45;72.20;;;55.03;;
3811;SDS011;1921;49.368;11.068;2023-06-26T01:12:12;73.17;;;55.10;;
3811;SDS011;1921;49.368;11.068;2023-06-26T01:14:38;72.00;;;55.73;;
3811;SDS011;1921;49.368;11.068;2023-06-26T01:17:04;70.27;;;54.80;;
3811;SDS011;1921;49.368;11.068;2023-06-26T01:19:32;72.47;;;54.43;;
3811;SDS011;1921;49.368;11.068;2023-06-26T01:22:16;68.57;;;54.57;;
3811;SDS011;1921;49.368;11.068;2023-06-26T01:27:46;69.93;;;54.33;;
3811;SDS011;1921;49.368;11.068;2023-06-26T01:30:15;70.70;;;54.80;;
3811;SDS011;1921;49.368;11.068;2023-06-26T01:32:43;70.00;;;54.10;;
3811;SDS011;1921;49.368;11.068;2023-06-26T01:35:10;74.20;;;54.53;;
3811;SDS011;1921;49.368;11.068;2023-06-26T01:37:37;69.33;;;54.60;;
3811;SDS011;1921;49.368;11.068;2023-06-26T01:40:03;71.23;;;53.73;;
3811;SDS011;1921;49.368;11.068;2023-06-26T01:42:32;69.27;;;54.30;;
3811;SDS011;1921;49.368;11.068;2023-06-26T01:45:00;69.67;;;54.03;;
3811;SDS011;1921;49.368;11.068;2023-06-26T01:47:34;69.13;;;54.23;;
3811;SDS011;1921;49.368;11.068;2023-06-26T01:50:09;68.83;;;54.17;;
3811;SDS011;1921;49.368;11.068;2023-06-26T01:58:19;70.20;;;54.97;;
3811;SDS011;1921;49.368;11.068;2023-06-26T02:00:47;73.17;;;54.50;;
3811;SDS011;1921;49.368;11.068;2023-06-26T02:03:13;70.10;;;54.20;;
3811;SDS011;1921;49.368;11.068;2023-06-26T02:05:39;70.50;;;54.43;;
3811;SDS011;1921;49.368;11.068;2023-06-26T02:08:05;67.77;;;53.83;;
3811;SDS011;1921;49.368;11.068;2023-06-26T02:10:30;67.97;;;54.10;;
3811;SDS011;1921;49.368;11.068;2023-06-26T02:12:56;71.77;;;54.90;;
3811;SDS011;1921;49.368;11.068;2023-06-26T02:15:22;70.27;;;54.80;;
3811;SDS011;1921;49.368;11.068;2023-06-26T02:17:48;70.97;;;54.63;;
3811;SDS011;1921;49.368;11.068;2023-06-26T02:20:14;70.80;;;54.53;;
3811;SDS011;1921;49.368;11.068;2023-06-26T02:22:40;68.87;;;54.37;;
3811;SDS011;1921;49.368;11.068;2023-06-26T02:25:07;70.03;;;54.60;;
3811;SDS011;1921;49.368;11.068;2023-06-26T02:27:34;69.17;;;53.77;;
3811;SDS011;1921;49.368;11.068;2023-06-26T02:29:59;70.60;;;54.47;;
3811;SDS011;1921;49.368;11.068;2023-06-26T02:32:25;70.13;;;54.13;;
3811;SDS011;1921;49.368;11.068;2023-06-26T02:34:51;70.03;;;54.60;;
3811;SDS011;1921;49.368;11.068;2023-06-26T02:37:17;69.70;;;54.33;;
3811;SDS011;1921;49.368;11.068;2023-06-26T02:39:43;72.23;;;55.20;;
3811;SDS011;1921;49.368;11.068;2023-06-26T02:42:09;69.93;;;54.67;;
3811;SDS011;1921;49.368;11.068;2023-06-26T02:44:34;71.77;;;54.77;;
3811;SDS011;1921;49.368;11.068;2023-06-26T02:47:00;70.23;;;54.73;;
3811;SDS011;1921;49.368;11.068;2023-06-26T02:49:26;72.10;;;55.30;;
3811;SDS011;1921;49.368;11.068;2023-06-26T02:51:52;69.83;;;54.43;;
3811;SDS011;1921;49.368;11.068;2023-06-26T02:54:17;70.23;;;54.70;;
3811;SDS011;1921;49.368;11.068;2023-06-26T02:56:43;71.13;;;54.67;;
3811;SDS011;1921;49.368;11.068;2023-06-26T02:59:09;70.63;;;54.80;;
3811;SDS011;1921;49.368;11.068;2023-06-26T03:01:34;69.17;;;54.80;;
3811;SDS011;1921;49.368;11.068;2023-06-26T03:04:00;69.80;;;54.50;;
3811;SDS011;1921;49.368;11.068;2023-06-26T03:06:26;71.70;;;54.03;;
3811;SDS011;1921;49.368;11.068;2023-06-26T03:08:52;73.70;;;55.27;;
3811;SDS011;1921;49.368;11.068;2023-06-26T03:11:18;72.10;;;53.83;;
3811;SDS011;1921;49.368;11.068;2023-06-26T03:13:44;70.97;;;54.63;;
3811;SDS011;1921;49.368;11.068;2023-06-26T03:16:10;69.67;;;55.00;;
3811;SDS011;1921;49.368;11.068;2023-06-26T03:18:36;73.93;;;54.83;;
3811;SDS011;1921;49.368;11.068;2023-06-26T03:21:02;69.33;;;54.07;;
3811;SDS011;1921;49.368;11.068;2023-06-26T03:23:28;71.83;;;55.20;;
3811;SDS011;1921;49.368;11.068;2023-06-26T03:25:53;74.63;;;55.07;;
3811;SDS011;1921;49.368;11.068;2023-06-26T03:28:19;72.17;;;55.60;;
3811;SDS011;1921;49.368;11.068;2023-06-26T03:30:45;73.80;;;55.20;;
3811;SDS011;1921;49.368;11.068;2023-06-26T03:33:10;68.47;;;54.77;;
3811;SDS011;1921;49.368;11.068;2023-06-26T03:35:36;72.30;;;54.97;;
3811;SDS011;1921;49.368;11.068;2023-06-26T03:38:03;72.90;;;55.87;;
3811;SDS011;1921;49.368;11.068;2023-06-26T03:40:30;71.80;;;55.40;;
3811;SDS011;1921;49.368;11.068;2023-06-26T03:42:56;71.87;;;55.30;;
3811;SDS011;1921;49.368;11.068;2023-06-26T03:45:22;74.90;;;56.27;;
3811;SDS011;1921;49.368;11.068;2023-06-26T03:47:47;74.07;;;55.90;;
3811;SDS011;1921;49.368;11.068;2023-06-26T03:50:17;75.43;;;56.77;;
3811;SDS011;1921;49.368;11.068;2023-06-26T03:52:43;75.07;;;56.17;;
3811;SDS011;1921;49.368;11.068;2023-06-26T03:55:10;74.60;;;55.80;;
3811;SDS011;1921;49.368;11.068;2023-06-26T03:57:36;77.13;;;56.97;;
3811;SDS011;1921;49.368;11.068;2023-06-26T04:00:02;76.43;;;56.73;;
3811;SDS011;1921;49.368;11.068;2023-06-26T04:02:33;76.80;;;57.07;;
3811;SDS011;1921;49.368;11.068;2023-06-26T04:05:00;77.30;;;56.13;;
3811;SDS011;1921;49.368;11.068;2023-06-26T04:07:26;78.87;;;57.07;;
3811;SDS011;1921;49.368;11.068;2023-06-26T04:09:52;78.07;;;57.30;;
3811;SDS011;1921;49.368;11.068;2023-06-26T04:12:17;78.97;;;57.90;;
3811;SDS011;1921;49.368;11.068;2023-06-26T04:14:43;78.47;;;57.37;;
3811;SDS011;1921;49.368;11.068;2023-06-26T04:17:09;80.27;;;58.43;;
3811;SDS011;1921;49.368;11.068;2023-06-26T04:19:35;78.67;;;57.53;;
3811;SDS011;1921;49.368;11.068;2023-06-26T04:22:01;79.83;;;58.10;;
3811;SDS011;1921;49.368;11.068;2023-06-26T04:24:27;79.23;;;58.07;;
3811;SDS011;1921;49.368;11.068;2023-06-26T04:26:53;79.80;;;57.53;;
3811;SDS011;1921;49.368;11.068;2023-06-26T04:29:22;77.93;;;57.60;;
3811;SDS011;1921;49.368;11.068;2023-06-26T04:31:50;78.03;;;57.03;;
3811;SDS011;1921;49.368;11.068;2023-06-26T04:34:17;80.63;;;58.10;;
3811;SDS011;1921;49.368;11.068;2023-06-26T04:36:42;78.90;;;57.87;;
3811;SDS011;1921;49.368;11.068;2023-06-26T04:39:12;79.70;;;58.23;;
3811;SDS011;1921;49.368;11.068;2023-06-26T04:41:42;79.17;;;57.80;;
3811;SDS011;1921;49.368;11.068;2023-06-26T04:44:07;83.47;;;58.50;;
3811;SDS011;1921;49.368;11.068;2023-06-26T04:46:33;79.20;;;58.20;;
3811;SDS011;1921;49.368;11.068;2023-06-26T04:48:59;79.27;;;57.60;;
3811;SDS011;1921;49.368;11.068;2023-06-26T04:51:25;82.13;;;57.80;;
3811;SDS011;1921;49.368;11.068;2023-06-26T04:53:52;79.60;;;57.70;;
3811;SDS011;1921;49.368;11.068;2023-06-26T04:56:18;82.20;;;58.10;;
3811;SDS011;1921;49.368;11.068;2023-06-26T04:58:43;81.67;;;58.80;;
3811;SDS011;1921;49.368;11.068;2023-06-26T05:01:09;80.50;;;58.00;;
3811;SDS011;1921;49.368;11.068;2023-06-26T05:03:35;82.20;;;58.53;;
3811;SDS011;1921;49.368;11.068;2023-06-26T05:06:01;84.30;;;57.60;;
3811;SDS011;1921;49.368;11.068;2023-06-26T05:08:27;82.30;;;58.60;;
3811;SDS011;1921;49.368;11.068;2023-06-26T05:10:53;82.90;;;58.90;;
3811;SDS011;1921;49.368;11.068;2023-06-26T05:13:22;80.70;;;58.17;;
3811;SDS011;1921;49.368;11.068;2023-06-26T05:15:49;80.57;;;58.03;;
3811;SDS011;1921;49.368;11.068;2023-06-26T05:18:16;82.70;;;58.67;;
3811;SDS011;1921;49.368;11.068;2023-06-26T05:20:41;82.27;;;58.60;;
3811;SDS011;1921;49.368;11.068;2023-06-26T05:23:07;80.77;;;57.70;;
3811;SDS011;1921;49.368;11.068;2023-06-26T05:25:38;79.63;;;57.73;;
3811;SDS011;1921;49.368;11.068;2023-06-26T05:28:05;81.60;;;56.63;;
3811;SDS011;1921;49.368;11.068;2023-06-26T05:30:31;88.43;;;58.30;;
3811;SDS011;1921;49.368;11.068;2023-06-26T05:33:00;82.17;;;58.30;;
3811;SDS011;1921;49.368;11.068;2023-06-26T05:35:29;82.20;;;59.57;;
3811;SDS011;1921;49.368;11.068;2023-06-26T05:37:56;81.30;;;58.03;;
3811;SDS011;1921;49.368;11.068;2023-06-26T05:40:23;81.60;;;58.30;;
3811;SDS011;1921;49.368;11.068;2023-06-26T05:42:50;86.83;;;58.80;;
3811;SDS011;1921;49.368;11.068;2023-06-26T05:45:16;82.23;;;58.20;;
3811;SDS011;1921;49.368;11.068;2023-06-26T05:47:42;82.80;;;58.40;;
3811;SDS011;1921;49.368;11.068;2023-06-26T05:50:08;87.27;;;59.50;;
3811;SDS011;1921;49.368;11.068;2023-06-26T05:52:35;82.83;;;58.67;;
3811;SDS011;1921;49.368;11.068;2023-06-26T05:55:02;85.40;;;59.30;;
3811;SDS011;1921;49.368;11.068;2023-06-26T05:57:29;84.10;;;58.47;;
3811;SDS011;1921;49.368;11.068;2023-06-26T05:59:55;84.77;;;58.87;;
3811;SDS011;1921;49.368;11.068;2023-06-26T06:02:22;83.87;;;58.70;;
3811;SDS011;1921;49.368;11.068;2023-06-26T06:04:48;89.20;;;59.57;;
3811;SDS011;1921;49.368;11.068;2023-06-26T06:07:14;90.17;;;59.73;;
3811;SDS011;1921;49.368;11.068;2023-06-26T06:09:39;88.40;;;60.20;;
3811;SDS011;1921;49.368;11.068;2023-06-26T06:12:06;88.93;;;59.60;;
3811;SDS011;1921;49.368;11.068;2023-06-26T06:14:33;89.83;;;59.60;;
3811;SDS011;1921;49.368;11.068;2023-06-26T06:16:59;86.73;;;59.30;;
3811;SDS011;1921;49.368;11.068;2023-06-26T06:19:26;89.50;;;59.50;;
3811;SDS011;1921;49.368;11.068;2023-06-26T06:21:52;87.83;;;59.80;;
3811;SDS011;1921;49.368;11.068;2023-06-26T06:24:18;87.13;;;60.17;;
3811;SDS011;1921;49.368;11.068;2023-06-26T06:26:45;87.00;;;59.77;;
3811;SDS011;1921;49.368;11.068;2023-06-26T06:29:11;90.87;;;60.10;;
3811;SDS011;1921;49.368;11.068;2023-06-26T06:31:36;88.60;;;59.50;;
3811;SDS011;1921;49.368;11.068;2023-06-26T06:34:02;91.53;;;59.80;;
3811;SDS011;1921;49.368;11.068;2023-06-26T06:36:28;86.60;;;59.53;;
3811;SDS011;1921;49.368;11.068;2023-06-26T06:38:54;88.27;;;60.20;;
3811;SDS011;1921;49.368;11.068;2023-06-26T06:41:19;87.20;;;59.57;;
3811;SDS011;1921;49.368;11.068;2023-06-26T06:43:46;84.90;;;59.97;;
3811;SDS011;1921;49.368;11.068;2023-06-26T06:46:11;84.93;;;59.60;;
3811;SDS011;1921;49.368;11.068;2023-06-26T06:48:37;85.20;;;59.93;;
3811;SDS011;1921;49.368;11.068;2023-06-26T06:51:03;86.73;;;59.83;;
3811;SDS011;1921;49.368;11.068;2023-06-26T06:53:29;85.90;;;59.80;;
3811;SDS011;1921;49.368;11.068;2023-06-26T06:55:56;87.50;;;58.67;;
3811;SDS011;1921;49.368;11.068;2023-06-26T06:58:22;83.67;;;59.03;;
3811;SDS011;1921;49.368;11.068;2023-06-26T07:00:48;85.23;;;59.80;;
3811;SDS011;1921;49.368;11.068;2023-06-26T07:03:14;83.20;;;59.13;;
3811;SDS011;1921;49.368;11.068;2023-06-26T07:05:43;83.90;;;60.40;;
3811;SDS011;1921;49.368;11.068;2023-06-26T07:08:09;88.87;;;59.83;;
3811;SDS011;1921;49.368;11.068;2023-06-26T07:10:35;85.00;;;59.80;;
3811;SDS011;1921;49.368;11.068;2023-06-26T07:13:00;85.00;;;60.50;;
3811;SDS011;1921;49.368;11.068;2023-06-26T07:15:26;86.10;;;60.77;;
3811;SDS011;1921;49.368;11.068;2023-06-26T07:17:52;84.83;;;59.53;;
3811;SDS011;1921;49.368;11.068;2023-06-26T07:20:18;84.87;;;60.20;;
3811;SDS011;1921;49.368;11.068;2023-06-26T07:22:44;84.20;;;60.03;;
3811;SDS011;1921;49.368;11.068;2023-06-26T07:25:10;86.90;;;60.45;;
3811;SDS011;1921;49.368;11.068;2023-06-26T07:27:37;88.03;;;60.83;;
3811;SDS011;1921;49.368;11.068;2023-06-26T07:30:03;84.95;;;60.30;;
3811;SDS011;1921;49.368;11.068;2023-06-26T07:32:30;85.03;;;60.25;;
3811;SDS011;1921;49.368;11.068;2023-06-26T07:34:56;85.35;;;60.28;;
3811;SDS011;1921;49.368;11.068;2023-06-26T07:37:21;86.05;;;60.20;;
3811;SDS011;1921;49.368;11.068;2023-06-26T07:39:48;83.57;;;59.35;;
3811;SDS011;1921;49.368;11.068;2023-06-26T07:42:14;85.70;;;61.05;;
3811;SDS011;1921;49.368;11.068;2023-06-26T07:44:41;84.38;;;60.00;;
3811;SDS011;1921;49.368;11.068;2023-06-26T07:47:08;86.47;;;60.05;;
3811;SDS011;1921;49.368;11.068;2023-06-26T07:49:34;85.00;;;60.22;;
3811;SDS011;1921;49.368;11.068;2023-06-26T07:51:59;86.35;;;60.45;;
3811;SDS011;1921;49.368;11.068;2023-06-26T07:54:25;86.13;;;60.35;;
3811;SDS011;1921;49.368;11.068;2023-06-26T07:57:09;86.95;;;60.78;;
3811;SDS011;1921;49.368;11.068;2023-06-26T07:59:36;85.63;;;60.53;;
3811;SDS011;1921;49.368;11.068;2023-06-26T08:02:02;84.38;;;60.15;;
3811;SDS011;1921;49.368;11.068;2023-06-26T08:04:28;92.13;;;60.30;;
3811;SDS011;1921;49.368;11.068;2023-06-26T08:06:57;83.50;;;60.38;;
3811;SDS011;1921;49.368;11.068;2023-06-26T08:09:24;86.35;;;60.53;;
3811;SDS011;1921;49.368;11.068;2023-06-26T08:11:52;83.40;;;59.95;;
3811;SDS011;1921;49.368;11.068;2023-06-26T08:14:19;91.30;;;61.47;;
3811;SDS011;1921;49.368;11.068;2023-06-26T08:16:45;84.70;;;60.60;;
3811;SDS011;1921;49.368;11.068;2023-06-26T08:19:12;84.57;;;60.65;;
3811;SDS011;1921;49.368;11.068;2023-06-26T08:21:39;83.47;;;60.50;;
3811;SDS011;1921;49.368;11.068;2023-06-26T08:24:06;85.82;;;60.95;;
3811;SDS011;1921;49.368;11.068;2023-06-26T08:26:32;86.88;;;61.70;;
3811;SDS011;1921;49.368;11.068;2023-06-26T08:28:59;89.38;;;61.28;;
3811;SDS011;1921;49.368;11.068;2023-06-26T08:31:24;85.90;;;61.95;;
3811;SDS011;1921;49.368;11.068;2023-06-26T08:33:50;86.45;;;61.83;;
3811;SDS011;1921;49.368;11.068;2023-06-26T08:36:16;87.47;;;62.65;;
3811;SDS011;1921;49.368;11.068;2023-06-26T08:38:41;86.25;;;61.33;;
3811;SDS011;1921;49.368;11.068;2023-06-26T08:41:08;84.55;;;61.28;;
3811;SDS011;1921;49.368;11.068;2023-06-26T08:43:34;86.17;;;61.70;;
3811;SDS011;1921;49.368;11.068;2023-06-26T08:46:01;85.38;;;61.47;;
3811;SDS011;1921;49.368;11.068;2023-06-26T08:48:29;84.32;;;61.00;;
3811;SDS011;1921;49.368;11.068;2023-06-26T08:51:04;86.85;;;62.47;;
3811;SDS011;1921;49.368;11.068;2023-06-26T08:56:32;84.55;;;60.13;;
3811;SDS011;1921;49.368;11.068;2023-06-26T08:59:02;83.28;;;61.35;;
3811;SDS011;1921;49.368;11.068;2023-06-26T09:01:29;83.18;;;60.97;;
3811;SDS011;1921;49.368;11.068;2023-06-26T09:03:57;84.13;;;60.58;;
3811;SDS011;1921;49.368;11.068;2023-06-26T09:06:23;82.65;;;60.40;;
3811;SDS011;1921;49.368;11.068;2023-06-26T09:08:48;84.38;;;60.67;;
3811;SDS011;1921;49.368;11.068;2023-06-26T09:11:14;85.82;;;61.53;;
3811;SDS011;1921;49.368;11.068;2023-06-26T09:13:40;84.28;;;61.15;;
3811;SDS011;1921;49.368;11.068;2023-06-26T09:16:07;88.97;;;61.78;;
3811;SDS011;1921;49.368;11.068;2023-06-26T09:18:34;85.80;;;61.58;;
3811;SDS011;1921;49.368;11.068;2023-06-26T09:21:00;87.40;;;60.88;;
3811;SDS011;1921;49.368;11.068;2023-06-26T09:23:34;84.13;;;60.65;;
3811;SDS011;1921;49.368;11.068;2023-06-26T09:26:04;83.57;;;60.88;;
3811;SDS011;1921;49.368;11.068;2023-06-26T09:28:31;83.88;;;60.65;;
3811;SDS011;1921;49.368;11.068;2023-06-26T09:31:02;83.05;;;60.80;;
3811;SDS011;1921;49.368;11.068;2023-06-26T09:33:36;86.00;;;60.35;;
3811;SDS011;1921;49.368;11.068;2023-06-26T09:36:07;85.00;;;60.97;;
3811;SDS011;1921;49.368;11.068;2023-06-26T09:38:34;85.05;;;61.70;;
3811;SDS011;1921;49.368;11.068;2023-06-26T09:41:01;83.43;;;60.67;;
3811;SDS011;1921;49.368;11.068;2023-06-26T09:43:28;86.30;;;61.33;;
3811;SDS011;1921;49.368;11.068;2023-06-26T09:45:56;90.53;;;61.50;;
3811;SDS011;1921;49.368;11.068;2023-06-26T09:48:21;85.45;;;62.15;;
3811;SDS011;1921;49.368;11.068;2023-06-26T09:50:47;86.30;;;61.38;;
3811;SDS011;1921;49.368;11.068;2023-06-26T09:53:13;84.85;;;61.15;;
3811;SDS011;1921;49.368;11.068;2023-06-26T09:55:40;85.05;;;62.25;;
3811;SDS011;1921;49.368;11.068;2023-06-26T09:58:08;89.45;;;62.13;;
3811;SDS011;1921;49.368;11.068;2023-06-26T10:00:40;83.68;;;61.08;;
3811;SDS011;1921;49.368;11.068;2023-06-26T10:03:07;84.32;;;60.92;;
3811;SDS011;1921;49.368;11.068;2023-06-26T10:05:34;85.53;;;61.75;;
3811;SDS011;1921;49.368;11.068;2023-06-26T10:08:00;85.78;;;62.08;;
3811;SDS011;1921;49.368;11.068;2023-06-26T10:10:27;83.63;;;60.88;;
3811;SDS011;1921;49.368;11.068;2023-06-26T10:12:54;83.65;;;60.53;;
3811;SDS011;1921;49.368;11.068;2023-06-26T10:15:25;84.57;;;59.65;;
3811;SDS011;1921;49.368;11.068;2023-06-26T10:17:54;87.63;;;60.70;;
3811;SDS011;1921;49.368;11.068;2023-06-26T10:20:22;84.45;;;61.30;;
3811;SDS011;1921;49.368;11.068;2023-06-26T10:22:50;84.78;;;61.17;;
3811;SDS011;1921;49.368;11.068;2023-06-26T10:25:18;83.07;;;60.47;;
3811;SDS011;1921;49.368;11.068;2023-06-26T10:27:47;85.38;;;60.70;;
3811;SDS011;1921;49.368;11.068;2023-06-26T10:30:20;83.53;;;60.53;;
3811;SDS011;1921;49.368;11.068;2023-06-26T10:32:52;87.28;;;60.75;;
3811;SDS011;1921;49.368;11.068;2023-06-26T10:35:19;84.55;;;61.13;;
3811;SDS011;1921;49.368;11.068;2023-06-26T10:37:47;86.15;;;61.08;;
3811;SDS011;1921;49.368;11.068;2023-06-26T10:40:15;84.93;;;60.95;;
3811;SDS011;1921;49.368;11.068;2023-06-26T10:42:49;83.78;;;58.95;;
3811;SDS011;1921;49.368;11.068;2023-06-26T10:47:52;84.95;;;60.47;;
3811;SDS011;1921;49.368;11.068;2023-06-26T10:50:25;87.00;;;60.28;;
3811;SDS011;1921;49.368;11.068;2023-06-26T10:53:14;93.25;;;60.58;;
3811;SDS011;1921;49.368;11.068;2023-06-26T10:55:49;83.88;;;59.47;;
3811;SDS011;1921;49.368;11.068;2023-06-26T11:01:14;85.68;;;60.35;;
3811;SDS011;1921;49.368;11.068;2023-06-26T11:06:32;89.63;;;61.85;;
3811;SDS011;1921;49.368;11.068;2023-06-26T11:09:09;89.07;;;60.42;;
3811;SDS011;1921;49.368;11.068;2023-06-26T11:14:20;88.55;;;60.38;;
3811;SDS011;1921;49.368;11.068;2023-06-26T11:16:48;88.03;;;60.35;;
3811;SDS011;1921;49.368;11.068;2023-06-26T11:19:14;87.55;;;59.92;;
3811;SDS011;1921;49.368;11.068;2023-06-26T11:21:43;87.43;;;60.00;;
3811;SDS011;1921;49.368;11.068;2023-06-26T11:24:09;85.95;;;60.40;;
3811;SDS011;1921;49.368;11.068;2023-06-26T11:26:46;87.50;;;59.85;;
3811;SDS011;1921;49.368;11.068;2023-06-26T11:29:13;82.68;;;58.05;;
3811;SDS011;1921;49.368;11.068;2023-06-26T11:31:39;85.20;;;59.13;;
3811;SDS011;1921;49.368;11.068;2023-06-26T11:34:08;85.85;;;59.25;;
3811;SDS011;1921;49.368;11.068;2023-06-26T11:36:36;84.15;;;59.47;;
3811;SDS011;1921;49.368;11.068;2023-06-26T11:39:04;85.25;;;59.22;;
3811;SDS011;1921;49.368;11.068;2023-06-26T11:41:31;84.72;;;59.92;;
3811;SDS011;1921;49.368;11.068;2023-06-26T11:44:02;84.13;;;59.55;;
3811;SDS011;1921;49.368;11.068;2023-06-26T11:46:29;84.78;;;59.63;;
3811;SDS011;1921;49.368;11.068;2023-06-26T11:48:55;86.20;;;59.65;;
3811;SDS011;1921;49.368;11.068;2023-06-26T11:51:22;90.50;;;60.30;;
3811;SDS011;1921;49.368;11.068;2023-06-26T11:53:48;84.65;;;59.58;;
3811;SDS011;1921;49.368;11.068;2023-06-26T11:56:16;82.68;;;58.97;;
3811;SDS011;1921;49.368;11.068;2023-06-26T12:01:41;86.90;;;60.05;;
3811;SDS011;1921;49.368;11.068;2023-06-26T12:04:12;83.38;;;58.55;;
3811;SDS011;1921;49.368;11.068;2023-06-26T12:06:47;81.78;;;57.33;;
3811;SDS011;1921;49.368;11.068;2023-06-26T12:09:18;91.00;;;58.85;;
3811;SDS011;1921;49.368;11.068;2023-06-26T12:11:46;86.43;;;59.92;;
3811;SDS011;1921;49.368;11.068;2023-06-26T12:14:16;85.55;;;59.58;;
3811;SDS011;1921;49.368;11.068;2023-06-26T12:16:44;84.50;;;59.80;;
3811;SDS011;1921;49.368;11.068;2023-06-26T12:19:10;83.38;;;58.75;;
3811;SDS011;1921;49.368;11.068;2023-06-26T12:24:02;84.22;;;59.47;;
3811;SDS011;1921;49.368;11.068;2023-06-26T12:26:29;85.28;;;59.53;;
3811;SDS011;1921;49.368;11.068;2023-06-26T12:29:01;84.50;;;59.72;;
3811;SDS011;1921;49.368;11.068;2023-06-26T12:31:33;83.75;;;59.08;;
3811;SDS011;1921;49.368;11.068;2023-06-26T12:33:59;87.78;;;59.45;;
3811;SDS011;1921;49.368;11.068;2023-06-26T12:36:25;85.20;;;59.38;;
3811;SDS011;1921;49.368;11.068;2023-06-26T12:38:53;86.63;;;60.17;;
3811;SDS011;1921;49.368;11.068;2023-06-26T12:41:19;85.32;;;59.70;;
3811;SDS011;1921;49.368;11.068;2023-06-26T12:43:48;85.68;;;59.35;;
3811;SDS011;1921;49.368;11.068;2023-06-26T12:46:15;87.07;;;60.72;;
3811;SDS011;1921;49.368;11.068;2023-06-26T12:48:41;85.65;;;60.53;;
3811;SDS011;1921;49.368;11.068;2023-06-26T12:51:11;86.68;;;59.35;;
3811;SDS011;1921;49.368;11.068;2023-06-26T12:53:38;87.07;;;60.88;;
3811;SDS011;1921;49.368;11.068;2023-06-26T12:56:07;86.00;;;60.60;;
3811;SDS011;1921;49.368;11.068;2023-06-26T12:58:34;85.45;;;61.08;;
3811;SDS011;1921;49.368;11.068;2023-06-26T13:01:05;85.70;;;60.78;;
3811;SDS011;1921;49.368;11.068;2023-06-26T13:03:38;87.18;;;61.20;;
3811;SDS011;1921;49.368;11.068;2023-06-26T13:06:04;86.22;;;60.75;;
3811;SDS011;1921;49.368;11.068;2023-06-26T13:08:30;86.95;;;59.95;;
3811;SDS011;1921;49.368;11.068;2023-06-26T13:10:55;85.85;;;60.78;;
3811;SDS011;1921;49.368;11.068;2023-06-26T13:13:21;88.70;;;60.38;;
3811;SDS011;1921;49.368;11.068;2023-06-26T13:15:47;83.85;;;60.47;;
3811;SDS011;1921;49.368;11.068;2023-06-26T13:18:13;87.10;;;61.97;;
3811;SDS011;1921;49.368;11.068;2023-06-26T13:20:38;85.22;;;61.38;;
3811;SDS011;1921;49.368;11.068;2023-06-26T13:23:04;83.68;;;60.33;;
3811;SDS011;1921;49.368;11.068;2023-06-26T13:25:30;84.68;;;61.00;;
3811;SDS011;1921;49.368;11.068;2023-06-26T13:27:55;85.43;;;61.53;;
3811;SDS011;1921;49.368;11.068;2023-06-26T13:30:21;84.55;;;61.00;;
3811;SDS011;1921;49.368;11.068;2023-06-26T13:32:47;85.10;;;61.42;;
3811;SDS011;1921;49.368;11.068;2023-06-26T13:35:13;83.75;;;61.53;;
3811;SDS011;1921;49.368;11.068;2023-06-26T13:37:39;84.03;;;60.88;;
3811;SDS011;1921;49.368;11.068;2023-06-26T13:40:06;85.03;;;61.97;;
3811;SDS011;1921;49.368;11.068;2023-06-26T13:42:33;84.63;;;60.53;;
3811;SDS011;1921;49.368;11.068;2023-06-26T13:45:00;85.85;;;61.10;;
3811;SDS011;1921;49.368;11.068;2023-06-26T13:47:25;87.18;;;60.92;;
3811;SDS011;1921;49.368;11.068;2023-06-26T13:49:51;84.43;;;61.22;;
3811;SDS011;1921;49.368;11.068;2023-06-26T13:52:17;86.15;;;61.10;;
3811;SDS011;1921;49.368;11.068;2023-06-26T13:54:42;84.65;;;59.78;;
3811;SDS011;1921;49.368;11.068;2023-06-26T13:57:08;82.72;;;60.53;;
3811;SDS011;1921;49.368;11.068;2023-06-26T13:59:36;84.72;;;61.38;;
3811;SDS011;1921;49.368;11.068;2023-06-26T14:02:04;82.68;;;60.35;;
3811;SDS011;1921;49.368;11.068;2023-06-26T14:04:32;84.95;;;60.17;;
3811;SDS011;1921;49.368;11.068;2023-06-26T14:06:57;82.40;;;59.85;;
3811;SDS011;1921;49.368;11.068;2023-06-26T14:09:23;81.32;;;58.88;;
3811;SDS011;1921;49.368;11.068;2023-06-26T14:11:49;87.75;;;60.67;;
3811;SDS011;1921;49.368;11.068;2023-06-26T14:14:15;85.32;;;60.65;;
3811;SDS011;1921;49.368;11.068;2023-06-26T14:16:40;84.18;;;60.75;;
3811;SDS011;1921;49.368;11.068;2023-06-26T14:19:07;86.82;;;60.78;;
3811;SDS011;1921;49.368;11.068;2023-06-26T14:21:34;84.82;;;61.72;;
3811;SDS011;1921;49.368;11.068;2023-06-26T14:23:59;85.30;;;60.40;;
3811;SDS011;1921;49.368;11.068;2023-06-26T14:26:25;88.50;;;61.40;;
3811;SDS011;1921;49.368;11.068;2023-06-26T14:28:51;84.10;;;61.78;;
3811;SDS011;1921;49.368;11.068;2023-06-26T14:31:16;85.35;;;60.85;;
3811;SDS011;1921;49.368;11.068;2023-06-26T14:33:42;83.72;;;62.05;;
3811;SDS011;1921;49.368;11.068;2023-06-26T14:36:08;85.75;;;61.83;;
3811;SDS011;1921;49.368;11.068;2023-06-26T14:38:34;83.13;;;61.13;;
3811;SDS011;1921;49.368;11.068;2023-06-26T14:40:59;83.88;;;60.55;;
3811;SDS011;1921;49.368;11.068;2023-06-26T14:43:25;83.40;;;60.63;;
3811;SDS011;1921;49.368;11.068;2023-06-26T14:45:51;82.97;;;61.20;;
3811;SDS011;1921;49.368;11.068;2023-06-26T14:48:16;84.40;;;62.30;;
3811;SDS011;1921;49.368;11.068;2023-06-26T14:50:44;86.60;;;60.78;;
3811;SDS011;1921;49.368;11.068;2023-06-26T14:53:09;84.45;;;61.90;;
3811;SDS011;1921;49.368;11.068;2023-06-26T14:55:35;86.05;;;61.22;;
3811;SDS011;1921;49.368;11.068;2023-06-26T14:58:01;86.40;;;61.72;;
3811;SDS011;1921;49.368;11.068;2023-06-26T15:00:27;82.60;;;60.17;;